Pep, Texas
Current Conditions -  °F | °C
As of 6:53 PM on Tuesday 21 Oct 2014 (Local Time) from KLBB Reporting Station
Broken Clouds Broken Clouds  
Wind Chill: 22°   Ceiling: 7000
Heat Index: 22°   Visibility: 10mi
Dew Point: 10°   Wind: 13mph
Humidity: 47%   Direction: 160°SSE
Pressure: 30.05"   Gusts: NA
Location:  33.81°N, 102.56°W
Report Text: KLBB 212353Z 16011KT 10SM FEW055 BKN070 BKN250 22/10 A3005 RMK AO2 SLP146 T02170100 10250 20217 55001
Loading
Personal Weather Stations






























Interactive Weather Map
Tropical Storm Tracking
New forecast layout! Learn more

10-Day Weather Forecast

Advertisements
Track Severe Weather on mobile